Time;durP1;ratioP1;P1;durP2;ratioP2;P2;SDS_P1;SDS_P2;PMS_P1;PMS_P2;Temp;Humidity;BMP_temperature;BMP_pressure;BME280_temperature;BME280_humidity;BME280_pressure;Samples;Min_cycle;Max_cycle;Signal;HPM_P1;HPM_P2
2021/08/23 00:01:14;;;;;;;10.17;4.73;;;;;;;10.06;100.00;94307.94;5073613;28;20593;-83
2021/08/23 00:03:40;;;;;;;10.20;4.63;;;;;;;9.96;100.00;94305.66;5072668;28;20205;-83
2021/08/23 00:06:07;;;;;;;11.43;4.10;;;;;;;9.99;100.00;94308.72;5072930;28;20199;-83
2021/08/23 00:08:35;;;;;;;11.83;4.90;;;;;;;10.08;100.00;94311.22;5072842;28;20207;-82
2021/08/23 00:11:01;;;;;;;12.70;4.93;;;;;;;10.01;100.00;94308.53;5072746;28;20565;-83
2021/08/23 00:13:28;;;;;;;18.03;6.30;;;;;;;10.22;100.00;94307.72;5072894;28;20195;-82
2021/08/23 00:15:55;;;;;;;19.65;7.50;;;;;;;10.18;100.00;94307.28;5072553;28;20441;-83
2021/08/23 00:18:22;;;;;;;15.33;6.17;;;;;;;10.19;100.00;94300.28;5072928;28;20234;-83
2021/08/23 00:20:55;;;;;;;16.83;6.43;;;;;;;10.23;100.00;94301.53;5072893;28;20226;-82
2021/08/23 00:23:25;;;;;;;17.97;6.07;;;;;;;10.26;100.00;94288.13;5073056;28;20538;-82
2021/08/23 00:25:53;;;;;;;22.37;6.60;;;;;;;10.19;100.00;94297.66;5072968;28;20838;-82
2021/08/23 00:28:20;;;;;;;9.57;5.20;;;;;;;10.11;100.00;94297.81;5073123;28;20202;-81
2021/08/23 00:30:47;;;;;;;19.83;5.60;;;;;;;10.07;100.00;94302.56;5072387;28;20244;-82
2021/08/23 00:33:14;;;;;;;12.27;5.20;;;;;;;10.07;100.00;94296.53;5072214;28;20559;-81
2021/08/23 00:35:41;;;;;;;13.57;4.73;;;;;;;9.90;100.00;94296.75;5072624;28;20610;-82
2021/08/23 00:38:08;;;;;;;15.83;4.97;;;;;;;9.83;100.00;94293.28;5072415;28;20221;-81
2021/08/23 00:40:35;;;;;;;13.53;5.27;;;;;;;9.83;100.00;94285.44;5071904;28;20336;-82
2021/08/23 00:43:03;;;;;;;13.03;4.80;;;;;;;9.76;100.00;94284.56;5072462;28;20202;-81
2021/08/23 00:45:29;;;;;;;16.03;4.50;;;;;;;9.59;100.00;94278.72;5071894;28;20230;-81
2021/08/23 00:47:56;;;;;;;14.30;5.50;;;;;;;9.76;100.00;94272.34;5072475;28;20198;-82
2021/08/23 00:50:23;;;;;;;12.57;5.33;;;;;;;9.77;100.00;94275.75;5072418;28;20203;-81
2021/08/23 00:52:50;;;;;;;12.67;5.83;;;;;;;9.81;100.00;94274.41;5072742;28;20221;-82
2021/08/23 00:55:17;;;;;;;13.50;5.23;;;;;;;9.69;100.00;94286.28;5072765;28;20195;-83
2021/08/23 00:57:44;;;;;;;11.70;4.77;;;;;;;9.53;100.00;94282.06;5072751;28;20203;-81
2021/08/23 01:00:13;;;;;;;12.98;5.95;;;;;;;9.43;100.00;94283.16;5072345;28;20462;-83
2021/08/23 01:02:50;;;;;;;9.07;4.63;;;;;;;9.37;100.00;94272.63;5072853;28;20710;-83
2021/08/23 01:05:21;;;;;;;14.57;5.00;;;;;;;9.51;100.00;94277.03;5072978;28;21312;-82
2021/08/23 01:07:51;;;;;;;11.23;5.50;;;;;;;9.57;100.00;94281.50;5072871;28;20198;-81
2021/08/23 01:10:20;;;;;;;9.70;4.57;;;;;;;9.49;100.00;94273.78;5072793;28;20206;-81
2021/08/23 01:12:47;;;;;;;14.17;5.27;;;;;;;9.42;100.00;94275.50;5072717;28;20285;-82
2021/08/23 01:15:15;;;;;;;18.23;5.00;;;;;;;9.41;100.00;94273.91;5072640;28;20554;-82
2021/08/23 01:17:41;;;;;;;12.27;4.67;;;;;;;9.39;100.00;94271.47;5072659;28;20199;-82
2021/08/23 01:20:09;;;;;;;12.73;4.63;;;;;;;9.40;100.00;94282.69;5073038;28;20233;-82
2021/08/23 01:22:40;;;;;;;11.73;4.93;;;;;;;9.46;100.00;94276.78;5073195;28;20205;-82
2021/08/23 01:25:09;;;;;;;15.07;5.53;;;;;;;9.50;100.00;94267.59;5073530;28;20210;-84
2021/08/23 01:27:38;;;;;;;16.53;6.13;;;;;;;9.58;100.00;94272.72;5072948;28;20203;-82
2021/08/23 01:30:09;;;;;;;14.97;5.60;;;;;;;9.66;100.00;94265.78;5072729;28;20256;-83
2021/08/23 01:32:38;;;;;;;23.37;6.13;;;;;;;9.78;100.00;94272.16;5072777;28;20198;-82
2021/08/23 01:35:07;;;;;;;17.43;5.70;;;;;;;9.85;100.00;94270.41;5073099;28;20202;-82
2021/08/23 01:37:35;;;;;;;16.17;5.67;;;;;;;9.92;100.00;94268.69;5072625;28;20206;-81
2021/08/23 01:40:02;;;;;;;18.97;6.80;;;;;;;10.05;100.00;94268.03;5072850;28;20199;-82
2021/08/23 01:42:29;;;;;;;12.90;5.77;;;;;;;9.97;100.00;94266.31;5073173;28;20210;-82
2021/08/23 01:44:56;;;;;;;18.23;7.80;;;;;;;10.06;100.00;94267.03;5065076;28;20822;-83
2021/08/23 01:47:22;;;;;;;11.03;5.30;;;;;;;9.94;100.00;94268.50;5052434;28;20231;-83
2021/08/23 01:49:50;;;;;;;13.97;5.57;;;;;;;9.92;100.00;94260.84;5052729;28;20206;-83
2021/08/23 01:52:16;;;;;;;9.70;4.70;;;;;;;9.87;100.00;94262.41;5055302;28;20207;-83
2021/08/23 01:54:45;;;;;;;21.17;6.17;;;;;;;10.08;100.00;94259.03;5073996;28;20199;-83
2021/08/23 01:57:13;;;;;;;21.87;6.03;;;;;;;10.05;100.00;94264.63;5076544;28;20199;-84
2021/08/23 01:59:40;;;;;;;12.90;5.20;;;;;;;10.06;100.00;94259.22;5076767;28;20195;-82
2021/08/23 02:02:07;;;;;;;17.93;5.77;;;;;;;10.13;100.00;94256.69;5076318;28;20230;-83
2021/08/23 02:04:33;;;;;;;21.87;6.87;;;;;;;10.22;100.00;94258.16;5076624;28;20649;-83
2021/08/23 02:07:01;;;;;;;15.87;6.33;;;;;;;10.16;100.00;94257.09;5076599;28;20206;-83
2021/08/23 02:09:28;;;;;;;14.03;5.30;;;;;;;10.11;100.00;94256.84;5076774;28;20195;-83
2021/08/23 02:11:54;;;;;;;15.57;5.47;;;;;;;10.11;100.00;94253.44;5076000;28;20218;-82
2021/08/23 02:14:21;;;;;;;21.00;6.20;;;;;;;10.12;100.00;94258.47;5076352;28;20206;-83
2021/08/23 02:16:47;;;;;;;19.87;6.03;;;;;;;10.10;100.00;94260.44;5074741;28;20199;-82
2021/08/23 02:19:13;;;;;;;13.93;5.77;;;;;;;10.16;100.00;94256.31;5076359;28;20203;-83
2021/08/23 02:21:51;;;;;;;19.83;6.70;;;;;;;10.28;100.00;94248.78;5076366;28;20694;-83
2021/08/23 02:24:19;;;;;;;21.17;7.70;;;;;;;10.51;100.00;94257.25;5075781;28;20210;-83
2021/08/23 02:26:46;;;;;;;18.33;6.83;;;;;;;10.49;100.00;94255.81;5075939;28;20202;-82
2021/08/23 02:29:13;;;;;;;20.60;7.60;;;;;;;10.47;100.00;94252.59;5075971;28;20445;-82
2021/08/23 02:31:40;;;;;;;18.87;6.80;;;;;;;10.48;100.00;94260.25;5075526;28;20203;-82
2021/08/23 02:34:06;;;;;;;14.23;5.67;;;;;;;10.26;100.00;94261.19;5075816;28;20203;-83
2021/08/23 02:36:34;;;;;;;16.83;5.40;;;;;;;10.21;100.00;94259.16;5075918;28;20205;-82
2021/08/23 02:39:01;;;;;;;12.73;4.87;;;;;;;10.08;100.00;94266.84;5075093;28;20653;-82
2021/08/23 02:41:28;;;;;;;7.13;4.00;;;;;;;9.97;100.00;94265.53;5075168;28;20222;-83
2021/08/23 02:43:55;;;;;;;9.50;4.43;;;;;;;9.87;100.00;94262.41;5075416;28;20268;-82
2021/08/23 02:46:21;;;;;;;12.90;5.13;;;;;;;10.10;100.00;94263.06;5075144;28;20230;-82
2021/08/23 02:48:48;;;;;;;10.63;5.33;;;;;;;10.08;100.00;94249.41;5075226;28;20199;-82
2021/08/23 02:51:14;;;;;;;13.93;4.90;;;;;;;10.08;100.00;94261.66;5075654;28;20206;-84
2021/08/23 02:53:41;;;;;;;15.00;5.07;;;;;;;10.11;100.00;94263.88;5075415;28;20224;-82
2021/08/23 02:56:07;;;;;;;10.93;4.93;;;;;;;10.01;100.00;94266.78;5075690;28;20209;-84
2021/08/23 02:58:35;;;;;;;11.97;4.80;;;;;;;9.94;100.00;94264.13;5075703;28;20614;-83
2021/08/23 03:01:02;;;;;;;11.50;4.73;;;;;;;9.88;100.00;94259.63;5075354;28;20235;-83
2021/08/23 03:03:28;;;;;;;11.70;5.55;;;;;;;9.92;100.00;94266.06;5073258;28;20426;-82
2021/08/23 03:05:55;;;;;;;18.07;6.00;;;;;;;9.92;100.00;94263.47;5075038;28;20211;-82
2021/08/23 03:08:21;;;;;;;11.63;5.67;;;;;;;10.00;100.00;94262.56;5075579;28;20202;-82
2021/08/23 03:10:48;;;;;;;17.30;5.97;;;;;;;10.17;100.00;94263.94;5075287;28;20209;-83
2021/08/23 03:13:14;;;;;;;14.07;5.80;;;;;;;10.27;100.00;94265.44;5075206;28;20207;-82
2021/08/23 03:15:42;;;;;;;20.63;7.13;;;;;;;10.46;100.00;94261.41;5075360;28;20198;-85
2021/08/23 03:18:09;;;;;;;16.37;6.80;;;;;;;10.45;100.00;94262.41;5075828;28;20199;-83
2021/08/23 03:20:36;;;;;;;19.43;6.97;;;;;;;10.50;100.00;94267.88;5075096;28;20202;-82
2021/08/23 03:23:02;;;;;;;16.20;7.37;;;;;;;10.57;100.00;94258.28;5075002;28;20561;-83
2021/08/23 03:25:28;;;;;;;15.17;5.50;;;;;;;10.51;100.00;94261.69;5075204;28;20202;-83
2021/08/23 03:27:55;;;;;;;12.20;5.80;;;;;;;10.43;100.00;94259.19;5074994;28;20198;-82
2021/08/23 03:30:21;;;;;;;12.63;4.97;;;;;;;10.41;100.00;94248.94;5075725;28;20256;-83
2021/08/23 03:32:49;;;;;;;10.43;4.70;;;;;;;10.37;100.00;94258.13;5076408;28;20203;-84
2021/08/23 03:35:16;;;;;;;14.63;4.93;;;;;;;10.36;100.00;94251.31;5077325;28;20226;-83
2021/08/23 03:37:42;;;;;;;11.40;5.27;;;;;;;10.35;100.00;94260.91;5077456;28;20221;-83
2021/08/23 03:40:10;;;;;;;14.40;5.13;;;;;;;10.38;100.00;94257.16;5076983;28;20203;-84
2021/08/23 03:42:36;;;;;;;12.57;4.70;;;;;;;10.45;100.00;94262.41;5075350;28;20233;-83
2021/08/23 03:45:03;;;;;;;13.07;5.50;;;;;;;10.44;100.00;94260.78;5074337;28;20231;-83
2021/08/23 03:47:30;;;;;;;14.60;4.67;;;;;;;10.47;100.00;94258.63;5074422;28;20195;-84
2021/08/23 03:49:57;;;;;;;8.60;4.80;;;;;;;10.52;100.00;94255.44;5074412;28;20203;-84
2021/08/23 03:52:24;;;;;;;13.97;4.83;;;;;;;10.51;100.00;94253.84;5074323;28;20289;-84
2021/08/23 03:54:50;;;;;;;15.07;4.73;;;;;;;10.50;100.00;94253.03;5074451;28;20207;-84
2021/08/23 03:57:17;;;;;;;12.13;5.03;;;;;;;10.49;100.00;94255.81;5074320;28;20202;-84
2021/08/23 03:59:43;;;;;;;14.93;5.67;;;;;;;10.54;100.00;94259.50;5074031;28;20202;-84
2021/08/23 04:02:09;;;;;;;17.20;5.53;;;;;;;10.53;100.00;94260.47;5074084;28;20226;-83
2021/08/23 04:04:36;;;;;;;14.47;4.73;;;;;;;10.52;100.00;94260.66;5074483;28;20206;-82
2021/08/23 04:07:04;;;;;;;13.73;5.40;;;;;;;10.46;100.00;94251.78;5073907;28;20206;-83
2021/08/23 04:09:30;;;;;;;19.33;4.87;;;;;;;10.60;100.00;94252.69;5073025;28;20203;-84
2021/08/23 04:11:57;;;;;;;15.83;6.40;;;;;;;10.66;100.00;94256.38;5072786;28;20206;-83
2021/08/23 04:14:23;;;;;;;24.77;5.10;;;;;;;10.61;100.00;94254.34;5072101;28;20658;-82
2021/08/23 04:16:50;;;;;;;14.77;5.60;;;;;;;10.65;100.00;94245.09;5072327;28;20561;-83
2021/08/23 04:19:16;;;;;;;20.70;6.20;;;;;;;10.72;100.00;94243.38;5072746;28;20198;-83
2021/08/23 04:21:42;;;;;;;16.07;6.23;;;;;;;10.74;100.00;94248.38;5072610;28;20229;-83
2021/08/23 04:24:10;;;;;;;16.03;6.70;;;;;;;10.78;100.00;94248.84;5072550;28;20205;-84
2021/08/23 04:26:37;;;;;;;11.70;6.03;;;;;;;10.79;100.00;94250.44;5072680;28;20209;-84
2021/08/23 04:29:03;;;;;;;15.87;6.90;;;;;;;10.84;100.00;94255.91;5072920;28;20203;-83
2021/08/23 04:31:31;;;;;;;15.77;5.70;;;;;;;10.81;100.00;94256.28;5072652;28;20205;-84
2021/08/23 04:33:57;;;;;;;10.73;5.13;;;;;;;10.76;100.00;94253.41;5072684;28;20737;-83
2021/08/23 04:36:24;;;;;;;11.97;5.20;;;;;;;10.72;100.00;94259.03;5072485;28;20202;-83
2021/08/23 04:38:50;;;;;;;12.37;5.17;;;;;;;10.65;100.00;94258.16;5072167;28;20198;-82
2021/08/23 04:41:18;;;;;;;13.77;5.13;;;;;;;10.67;100.00;94263.19;5072211;28;20582;-83
2021/08/23 04:43:45;;;;;;;14.23;6.45;;;;;;;10.69;100.00;94262.03;5072075;28;20445;-84
2021/08/23 04:46:11;;;;;;;12.43;5.67;;;;;;;10.69;100.00;94262.03;5071929;28;20222;-83
2021/08/23 04:48:38;;;;;;;16.17;6.20;;;;;;;10.74;100.00;94251.00;5072275;28;20202;-83
2021/08/23 04:51:06;;;;;;;13.87;5.10;;;;;;;10.80;100.00;94263.31;5104578;28;20198;-84
2021/08/23 04:53:33;;;;;;;13.73;5.10;;;;;;;10.86;100.00;94262.56;5072253;28;20256;-84
2021/08/23 04:55:59;;;;;;;12.63;5.33;;;;;;;10.88;100.00;94267.59;5072318;28;20201;-82
2021/08/23 04:58:27;;;;;;;10.97;5.10;;;;;;;10.90;100.00;94263.78;5072314;28;20516;-84
2021/08/23 05:00:53;;;;;;;11.30;4.57;;;;;;;10.98;100.00;94275.09;5071796;28;20207;-83
2021/08/23 05:03:20;;;;;;;16.77;5.10;;;;;;;10.92;100.00;94271.44;5072176;28;20297;-84
2021/08/23 05:05:48;;;;;;;11.03;4.97;;;;;;;10.97;100.00;94270.88;5072082;28;20213;-83
2021/08/23 05:08:18;;;;;;;10.47;5.10;;;;;;;11.01;100.00;94269.50;5071922;28;20617;-82
2021/08/23 05:10:44;;;;;;;11.67;4.70;;;;;;;11.04;100.00;94267.31;5071675;28;20202;-83
2021/08/23 05:13:11;;;;;;;13.23;4.97;;;;;;;11.12;100.00;94271.56;5071892;28;20210;-83
2021/08/23 05:15:38;;;;;;;13.87;5.50;;;;;;;11.16;100.00;94271.97;5072398;28;20203;-82
2021/08/23 05:18:05;;;;;;;15.17;5.60;;;;;;;11.19;100.00;94264.59;5071818;28;20201;-83
2021/08/23 05:20:31;;;;;;;15.27;5.40;;;;;;;11.23;100.00;94262.41;5071898;28;20205;-83
2021/08/23 05:22:58;;;;;;;13.53;5.60;;;;;;;11.36;100.00;94259.03;5071672;28;20226;-83
2021/08/23 05:25:24;;;;;;;19.60;5.47;;;;;;;11.38;100.00;94260.47;5071748;28;20199;-82
2021/08/23 05:27:51;;;;;;;17.37;5.83;;;;;;;11.43;100.00;94255.47;5075157;28;20198;-83
2021/08/23 05:30:17;;;;;;;10.40;5.13;;;;;;;11.48;100.00;94263.53;5076082;28;20202;-85
2021/08/23 05:32:45;;;;;;;16.63;5.70;;;;;;;11.45;100.00;94266.53;5076419;28;20203;-83
2021/08/23 05:35:11;;;;;;;17.30;5.90;;;;;;;11.48;100.00;94266.13;5077552;28;20198;-83
2021/08/23 05:37:38;;;;;;;14.43;5.57;;;;;;;11.57;100.00;94268.59;5078244;28;20206;-84
2021/08/23 05:40:06;;;;;;;13.13;6.17;;;;;;;11.70;100.00;94271.28;5078321;28;20561;-83
2021/08/23 05:42:32;;;;;;;12.77;6.80;;;;;;;11.74;100.00;94276.91;5078287;28;20696;-84
2021/08/23 05:44:58;;;;;;;13.83;5.43;;;;;;;11.79;100.00;94266.66;5079451;28;20199;-84
2021/08/23 05:47:25;;;;;;;8.97;5.03;;;;;;;11.82;100.00;94271.50;5078400;28;20199;-84
2021/08/23 05:49:53;;;;;;;12.63;5.20;;;;;;;11.89;100.00;94276.78;5076489;28;20199;-84
2021/08/23 05:52:19;;;;;;;9.93;4.93;;;;;;;11.95;100.00;94276.03;5075575;28;20661;-84
2021/08/23 05:54:46;;;;;;;16.33;6.10;;;;;;;11.93;100.00;94275.44;5075346;28;20202;-84
2021/08/23 05:57:13;;;;;;;12.90;5.43;;;;;;;12.10;100.00;94271.44;5075653;28;20304;-84
2021/08/23 05:59:39;;;;;;;16.17;5.47;;;;;;;12.27;100.00;94271.09;5075278;28;20199;-83
2021/08/23 06:02:06;;;;;;;8.90;5.05;;;;;;;12.43;100.00;94268.09;5075172;28;20815;-84
2021/08/23 06:04:33;;;;;;;15.55;5.80;;;;;;;12.47;100.00;94268.50;5075153;28;20195;-82
2021/08/23 06:07:01;;;;;;;10.55;5.55;;;;;;;12.63;100.00;94278.59;5075129;28;20195;-84
2021/08/23 06:09:27;;;;;;;9.88;5.20;;;;;;;12.62;100.00;94270.94;5075256;28;20199;-85
2021/08/23 06:11:54;;;;;;;11.98;6.25;;;;;;;12.67;100.00;94274.53;5075483;28;20198;-84
2021/08/23 06:14:20;;;;;;;13.35;6.30;;;;;;;12.90;100.00;94273.34;5074903;28;20442;-85
2021/08/23 06:16:47;;;;;;;8.20;4.80;;;;;;;12.66;100.00;94285.25;5074664;28;20207;-83
2021/08/23 06:19:13;;;;;;;12.70;4.78;;;;;;;12.68;100.00;94276.16;5074691;28;20199;-84
2021/08/23 06:21:39;;;;;;;10.63;5.20;;;;;;;12.86;100.00;94278.19;5074585;28;20616;-82
2021/08/23 06:24:07;;;;;;;11.20;5.03;;;;;;;13.41;100.00;94274.53;5074834;28;20206;-83
2021/08/23 06:26:34;;;;;;;14.07;5.65;;;;;;;13.67;100.00;94271.84;5074621;28;20203;-84
2021/08/23 06:29:00;;;;;;;8.02;4.85;;;;;;;13.41;100.00;94271.91;5074469;28;20657;-83
2021/08/23 06:31:26;;;;;;;12.43;4.68;;;;;;;13.37;100.00;94275.94;5074983;28;20215;-82
2021/08/23 06:33:53;;;;;;;8.80;4.95;;;;;;;13.77;100.00;94279.28;5075653;28;20203;-80
2021/08/23 06:36:19;;;;;;;9.15;4.40;;;;;;;13.98;100.00;94275.53;5075481;28;20575;-81
2021/08/23 06:38:46;;;;;;;9.00;4.78;;;;;;;14.26;100.00;94274.41;5075239;28;20685;-80
2021/08/23 06:41:17;;;;;;;8.43;3.97;;;;;;;14.22;100.00;94278.47;5075699;28;20206;-81
2021/08/23 06:43:44;;;;;;;5.03;3.45;;;;;;;14.19;100.00;94279.69;5075691;28;20280;-82
2021/08/23 06:46:10;;;;;;;7.05;3.40;;;;;;;14.09;100.00;94273.28;5075017;28;20231;-81
2021/08/23 06:48:37;;;;;;;4.88;2.70;;;;;;;14.46;100.00;94273.50;5075443;28;20202;-81
2021/08/23 06:51:03;;;;;;;5.38;2.53;;;;;;;14.50;100.00;94277.28;5075579;28;20195;-81
2021/08/23 06:53:29;;;;;;;6.18;2.67;;;;;;;14.81;100.00;94268.63;5075594;28;20206;-82
2021/08/23 06:55:56;;;;;;;5.53;2.63;;;;;;;14.82;100.00;94274.69;5075667;28;20668;-82
2021/08/23 06:58:24;;;;;;;4.25;1.98;;;;;;;14.78;100.00;94274.31;5075993;28;20194;-81
2021/08/23 07:00:50;;;;;;;4.97;1.83;;;;;;;14.79;100.00;94274.09;5075335;28;20195;-82
2021/08/23 07:03:16;;;;;;;4.18;2.20;;;;;;;14.83;100.00;94281.56;5075093;28;20227;-82
2021/08/23 07:05:43;;;;;;;7.65;1.95;;;;;;;14.76;100.00;94277.16;5075324;28;20215;-80
2021/08/23 07:08:09;;;;;;;4.90;2.10;;;;;;;14.98;100.00;94279.41;5075145;28;20202;-81
2021/08/23 07:10:36;;;;;;;10.57;2.20;;;;;;;14.98;100.00;94274.16;5075160;28;20205;-80
2021/08/23 07:13:05;;;;;;;2.90;1.77;;;;;;;14.83;100.00;94278.94;5075000;28;20198;-81
2021/08/23 07:15:33;;;;;;;5.15;2.15;;;;;;;14.70;100.00;94278.00;5074964;28;20207;-81
2021/08/23 07:17:59;;;;;;;11.68;2.70;;;;;;;15.10;100.00;94272.41;5074580;28;20203;-81
2021/08/23 07:20:26;;;;;;;7.25;2.40;;;;;;;15.05;100.00;94279.34;5074676;28;20202;-80
2021/08/23 07:22:52;;;;;;;4.45;2.00;;;;;;;15.13;100.00;94277.25;5074753;28;20230;-80
2021/08/23 07:25:19;;;;;;;8.50;2.40;;;;;;;15.07;100.00;94280.75;5074732;28;20211;-80
2021/08/23 07:27:45;;;;;;;5.88;2.10;;;;;;;14.69;100.00;94281.66;5074768;28;20203;-83
2021/08/23 07:30:12;;;;;;;5.80;2.40;;;;;;;14.61;100.00;94280.06;5074617;28;20203;-82
2021/08/23 07:32:42;;;;;;;4.03;2.15;;;;;;;14.56;100.00;94287.75;5073720;28;20800;-81
2021/08/23 07:35:10;;;;;;;9.32;2.38;;;;;;;15.02;100.00;94275.34;5074665;28;20203;-80
2021/08/23 07:37:44;;;;;;;4.70;2.00;;;;;;;15.21;100.00;94278.00;5074673;28;20199;-80
2021/08/23 07:40:11;;;;;;;5.68;2.53;;;;;;;15.08;100.00;94279.72;5074458;28;20205;-80
2021/08/23 07:42:38;;;;;;;5.18;2.13;;;;;;;15.18;100.00;94277.41;5074159;28;20585;-79
2021/08/23 07:45:05;;;;;;;4.32;1.80;;;;;;;15.30;100.00;94274.06;5074055;28;20214;-80
2021/08/23 07:47:31;;;;;;;4.55;2.05;;;;;;;15.69;100.00;94280.75;5074421;28;20199;-81
2021/08/23 07:49:59;;;;;;;9.88;2.45;;;;;;;15.83;100.00;94276.16;5073564;28;20207;-80
2021/08/23 07:52:28;;;;;;;10.30;2.10;;;;;;;15.90;100.00;94276.91;5074220;28;20206;-80
2021/08/23 07:54:55;;;;;;;4.05;1.90;;;;;;;15.60;100.00;94283.88;5074228;28;20293;-79
2021/08/23 07:57:21;;;;;;;4.43;2.25;;;;;;;15.45;100.00;94282.41;5074464;28;20202;-81
2021/08/23 07:59:47;;;;;;;6.78;2.20;;;;;;;15.79;100.00;94280.28;5073928;28;20211;-79
2021/08/23 08:02:14;;;;;;;3.38;1.73;;;;;;;15.54;100.00;94272.41;5073640;28;20245;-81
2021/08/23 08:04:40;;;;;;;8.43;2.10;;;;;;;15.90;100.00;94276.91;5073733;28;20685;-80
2021/08/23 08:07:08;;;;;;;8.18;1.80;;;;;;;16.44;100.00;94273.59;5073765;28;20199;-82
2021/08/23 08:09:34;;;;;;;3.92;1.75;;;;;;;16.18;100.00;94282.66;5074617;28;20194;-80
2021/08/23 08:12:02;;;;;;;2.28;1.48;;;;;;;16.08;100.00;94275.25;5074816;28;20213;-83
2021/08/23 08:14:29;;;;;;;5.13;1.98;;;;;;;15.80;100.00;94284.50;5081839;28;20203;-85
2021/08/23 08:16:57;;;;;;;4.47;1.90;;;;;;;15.46;100.00;94284.03;5085757;28;20438;-84
2021/08/23 08:19:23;;;;;;;5.00;2.20;;;;;;;15.30;100.00;94276.69;5079720;28;20194;-83
2021/08/23 08:21:50;;;;;;;3.40;1.67;;;;;;;15.30;100.00;94274.06;5073632;28;20209;-82
2021/08/23 08:24:17;;;;;;;5.55;1.70;;;;;;;15.54;100.00;94283.75;5076487;28;20227;-82
2021/08/23 08:26:44;;;;;;;7.20;2.03;;;;;;;15.37;100.00;94280.09;5081486;28;20202;-81
2021/08/23 08:29:10;;;;;;;5.35;1.90;;;;;;;15.27;100.00;94283.22;5078704;28;20207;-82
2021/08/23 08:31:37;;;;;;;5.90;1.83;;;;;;;15.23;100.00;94281.22;5079562;28;20207;-81
2021/08/23 08:34:03;;;;;;;8.95;2.28;;;;;;;15.48;100.00;94289.88;5075201;28;20199;-85
2021/08/23 08:36:30;;;;;;;5.95;2.10;;;;;;;15.51;100.00;94280.75;5075538;28;20199;-82
2021/08/23 08:38:56;;;;;;;5.15;1.60;;;;;;;15.69;100.00;94285.22;5075018;28;20199;-83
2021/08/23 08:41:29;;;;;;;2.72;1.40;;;;;;;15.81;100.00;94285.31;5074581;28;20214;-83
2021/08/23 08:43:56;;;;;;;4.55;1.63;;;;;;;15.87;100.00;94287.06;5076225;28;20293;-83
2021/08/23 08:46:22;;;;;;;5.82;2.13;;;;;;;15.85;100.00;94281.22;5074161;28;20238;-83
2021/08/23 08:48:49;;;;;;;10.85;1.80;;;;;;;15.91;100.00;94289.03;5075490;28;20661;-84
2021/08/23 08:51:16;;;;;;;4.72;1.67;;;;;;;15.87;100.00;94284.41;5077203;28;20780;-83
2021/08/23 08:53:42;;;;;;;4.88;1.65;;;;;;;15.71;100.00;94288.44;5075828;28;20207;-83
2021/08/23 08:56:09;;;;;;;4.18;1.85;;;;;;;15.68;100.00;94292.28;5074403;28;20214;-83
2021/08/23 08:58:37;;;;;;;6.70;2.53;;;;;;;15.69;100.00;94295.75;5077090;28;20195;-84
2021/08/23 09:01:04;;;;;;;3.22;1.55;;;;;;;15.68;100.00;94294.94;5076970;28;20252;-85
2021/08/23 09:03:31;;;;;;;3.80;1.35;;;;;;;15.87;100.00;94303.69;5074512;28;20738;-84
2021/08/23 09:06:03;;;;;;;6.28;2.25;;;;;;;16.03;100.00;94302.25;5074698;28;20554;-85
2021/08/23 09:08:30;;;;;;;6.20;1.83;;;;;;;16.00;98.94;94307.16;5077097;28;20210;-85
2021/08/23 09:10:57;;;;;;;5.13;1.80;;;;;;;16.45;100.00;94307.63;5074647;28;20198;-84
2021/08/23 09:13:26;;;;;;;5.75;1.70;;;;;;;16.78;100.00;94298.41;5074835;28;20442;-84
2021/08/23 09:15:57;;;;;;;3.60;1.50;;;;;;;17.15;97.69;94302.75;5073439;28;20202;-85
2021/08/23 09:18:27;;;;;;;4.43;1.38;;;;;;;17.19;98.05;94296.00;5073924;28;20203;-83
2021/08/23 09:20:59;;;;;;;2.90;1.42;;;;;;;17.48;96.75;94296.13;5073818;28;20549;-85
2021/08/23 09:23:35;;;;;;;3.47;1.17;;;;;;;17.98;98.25;94300.91;5073696;28;20226;-85
2021/08/23 09:26:09;;;;;;;6.38;1.70;;;;;;;18.43;89.68;94296.75;5073549;28;20530;-84
2021/08/23 09:28:38;;;;;;;4.30;1.45;;;;;;;18.22;91.08;94298.19;5073458;28;20642;-82
2021/08/23 09:31:10;;;;;;;4.28;1.27;;;;;;;17.94;88.15;94310.34;5073050;28;20198;-83
2021/08/23 09:33:44;;;;;;;4.18;1.63;;;;;;;18.02;91.82;94307.34;5072844;28;20199;-82
2021/08/23 09:36:11;;;;;;;4.50;1.40;;;;;;;17.67;91.35;94300.25;5071890;28;20214;-83
2021/08/23 09:38:39;;;;;;;4.97;1.30;;;;;;;16.69;93.95;94307.69;5071302;28;20222;-84
2021/08/23 09:41:06;;;;;;;3.70;1.50;;;;;;;16.40;96.03;94301.41;5070864;28;20592;-83
2021/08/23 09:43:35;;;;;;;3.35;1.40;;;;;;;16.56;92.18;94306.03;5072929;28;20701;-83
2021/08/23 09:46:10;;;;;;;3.95;1.27;;;;;;;16.89;94.05;94293.47;5074913;28;20635;-83
2021/08/23 09:48:39;;;;;;;3.35;1.80;;;;;;;17.42;88.96;94302.31;5073581;28;20740;-82
2021/08/23 09:51:05;;;;;;;6.45;1.73;;;;;;;17.78;85.68;94303.09;5075112;28;20237;-82
2021/08/23 09:53:32;;;;;;;4.72;1.40;;;;;;;17.53;89.63;94296.22;5075500;28;20225;-82
2021/08/23 09:55:58;;;;;;;5.13;1.42;;;;;;;17.51;88.11;94298.31;5074792;28;20207;-83
2021/08/23 09:58:26;;;;;;;5.05;1.40;;;;;;;17.56;92.01;94298.41;5074285;28;20206;-82
2021/08/23 10:00:53;;;;;;;6.22;1.63;;;;;;;17.27;89.68;94300.94;5075163;28;20195;-80
2021/08/23 10:03:23;;;;;;;3.65;1.35;;;;;;;17.23;90.70;94294.50;5075386;28;20704;-83
2021/08/23 10:05:54;;;;;;;4.57;1.20;;;;;;;16.83;87.64;94303.03;5074276;28;20214;-82
2021/08/23 10:08:23;;;;;;;3.42;1.33;;;;;;;17.31;87.95;94299.44;5076298;28;20198;-84
2021/08/23 10:10:51;;;;;;;3.72;1.52;;;;;;;17.98;89.71;94302.75;5074642;28;20202;-83
2021/08/23 10:13:17;;;;;;;2.97;1.30;;;;;;;18.52;88.52;94294.53;5075526;28;20202;-84
2021/08/23 10:15:44;;;;;;;5.43;1.67;;;;;;;18.21;89.56;94301.91;5077773;28;20205;-84
2021/08/23 10:18:10;;;;;;;1.80;1.30;;;;;;;18.21;85.23;94294.75;5077696;28;20203;-84
2021/08/23 10:20:38;;;;;;;2.72;1.58;;;;;;;18.51;91.99;94296.38;5076684;28;20198;-83
2021/08/23 10:23:09;;;;;;;4.53;1.40;;;;;;;18.58;84.57;94296.22;5076595;28;20226;-83
2021/08/23 10:25:36;;;;;;;4.68;1.23;;;;;;;18.42;83.52;94292.53;5076675;28;20199;-83
2021/08/23 10:28:12;;;;;;;2.03;1.40;;;;;;;18.71;90.61;94288.00;5076876;28;20666;-82
2021/08/23 10:30:39;;;;;;;5.03;1.30;;;;;;;18.65;87.74;94283.66;5077656;28;20202;-81
2021/08/23 10:33:14;;;;;;;4.57;1.33;;;;;;;18.97;84.28;94286.63;5077777;28;20199;-83
2021/08/23 10:35:52;;;;;;;4.57;1.40;;;;;;;19.13;81.00;94279.72;5077525;28;20202;-83
2021/08/23 10:38:22;;;;;;;3.88;1.40;;;;;;;19.33;85.89;94278.44;5076390;28;20210;-83
2021/08/23 10:40:53;;;;;;;3.45;1.35;;;;;;;19.65;85.66;94273.34;5076318;28;20206;-82
2021/08/23 10:43:23;;;;;;;4.53;1.42;;;;;;;19.88;81.86;94279.47;5075965;28;20620;-82
2021/08/23 10:45:50;;;;;;;2.22;1.25;;;;;;;20.21;76.42;94278.53;5075206;28;20231;-83
2021/08/23 10:48:18;;;;;;;6.53;1.60;;;;;;;20.13;81.52;94271.03;5075745;28;20203;-82
2021/08/23 10:50:57;;;;;;;4.18;1.40;;;;;;;19.75;79.83;94276.16;5075698;28;20206;-83
2021/08/23 10:53:33;;;;;;;2.53;1.23;;;;;;;19.73;81.36;94277.38;5075997;28;20210;-83
2021/08/23 10:56:12;;;;;;;2.42;1.15;;;;;;;18.55;83.04;94283.47;5075664;28;20581;-83
2021/08/23 10:58:38;;;;;;;6.15;1.65;;;;;;;17.80;89.29;94279.91;5075460;28;20199;-83
2021/08/23 11:01:16;;;;;;;5.50;1.40;;;;;;;17.38;89.75;94278.22;5075157;28;20202;-82
2021/08/23 11:03:43;;;;;;;3.38;1.42;;;;;;;17.36;87.69;94289.00;5075153;28;20234;-82
2021/08/23 11:06:09;;;;;;;1.85;1.20;;;;;;;17.35;89.75;94290.06;5075182;28;20202;-83
2021/08/23 11:08:38;;;;;;;2.72;1.30;;;;;;;17.15;91.87;94287.75;5075093;28;20210;-83
2021/08/23 11:11:11;;;;;;;4.25;1.58;;;;;;;17.17;93.28;94287.53;5075393;28;20235;-82
2021/08/23 11:13:40;;;;;;;3.70;1.25;;;;;;;17.24;93.52;94282.94;5075603;28;20206;-82
2021/08/23 11:16:07;;;;;;;2.65;1.45;;;;;;;17.16;93.49;94278.78;5075114;28;20199;-83
2021/08/23 11:18:41;;;;;;;4.03;1.27;;;;;;;17.46;94.12;94277.88;5074303;28;20199;-83
2021/08/23 11:21:07;;;;;;;3.53;1.20;;;;;;;17.56;89.82;94286.00;5075066;28;20199;-84
2021/08/23 11:23:34;;;;;;;4.18;1.20;;;;;;;17.96;88.31;94284.50;5074671;28;20230;-83
2021/08/23 11:26:02;;;;;;;2.58;1.48;;;;;;;18.89;86.33;94283.56;5074627;28;20214;-81